sensor_id;sensor_type;location;lat;lon;timestamp;temperature;humidity
11128;DHT22;5618;51.028;5.234;2022-09-01T00:02:04;20.50;99.90
11128;DHT22;5618;51.028;5.234;2022-09-01T00:04:36;20.50;99.90
11128;DHT22;5618;51.028;5.234;2022-09-01T00:07:05;20.50;99.90
11128;DHT22;5618;51.028;5.234;2022-09-01T00:09:31;20.40;99.90
11128;DHT22;5618;51.028;5.234;2022-09-01T00:11:57;20.50;99.90
11128;DHT22;5618;51.028;5.234;2022-09-01T00:14:26;20.70;99.90
11128;DHT22;5618;51.028;5.234;2022-09-01T00:16:52;20.50;99.90
11128;DHT22;5618;51.028;5.234;2022-09-01T00:19:20;20.40;99.90
11128;DHT22;5618;51.028;5.234;2022-09-01T00:21:46;20.40;99.90
11128;DHT22;5618;51.028;5.234;2022-09-01T00:24:14;20.20;99.90
11128;DHT22;5618;51.028;5.234;2022-09-01T00:26:40;20.30;99.90
11128;DHT22;5618;51.028;5.234;2022-09-01T00:29:06;20.40;99.90
11128;DHT22;5618;51.028;5.234;2022-09-01T00:31:32;20.30;99.90
11128;DHT22;5618;51.028;5.234;2022-09-01T00:33:59;20.30;99.90
11128;DHT22;5618;51.028;5.234;2022-09-01T00:36:24;20.20;99.90
11128;DHT22;5618;51.028;5.234;2022-09-01T00:38:52;20.20;99.90
11128;DHT22;5618;51.028;5.234;2022-09-01T00:41:21;20.30;99.90
11128;DHT22;5618;51.028;5.234;2022-09-01T00:43:50;20.20;99.90
11128;DHT22;5618;51.028;5.234;2022-09-01T00:46:23;20.20;99.90
11128;DHT22;5618;51.028;5.234;2022-09-01T00:49:00;20.20;99.90
11128;DHT22;5618;51.028;5.234;2022-09-01T00:51:27;20.00;99.90
11128;DHT22;5618;51.028;5.234;2022-09-01T00:53:54;20.00;99.90
11128;DHT22;5618;51.028;5.234;2022-09-01T00:56:21;20.20;99.90
11128;DHT22;5618;51.028;5.234;2022-09-01T00:58:49;20.10;99.90
11128;DHT22;5618;51.028;5.234;2022-09-01T01:01:16;20.10;99.90
11128;DHT22;5618;51.028;5.234;2022-09-01T01:03:42;20.10;99.90
11128;DHT22;5618;51.028;5.234;2022-09-01T01:06:13;20.00;99.90
11128;DHT22;5618;51.028;5.234;2022-09-01T01:08:42;20.00;99.90
11128;DHT22;5618;51.028;5.234;2022-09-01T01:11:14;19.90;99.90
11128;DHT22;5618;51.028;5.234;2022-09-01T01:14:06;19.90;99.90
11128;DHT22;5618;51.028;5.234;2022-09-01T01:16:43;20.00;99.90
11128;DHT22;5618;51.028;5.234;2022-09-01T01:19:28;20.00;99.90
11128;DHT22;5618;51.028;5.234;2022-09-01T01:22:21;19.90;99.90
11128;DHT22;5618;51.028;5.234;2022-09-01T01:25:09;19.90;99.90
11128;DHT22;5618;51.028;5.234;2022-09-01T01:27:37;19.90;99.90
11128;DHT22;5618;51.028;5.234;2022-09-01T01:30:07;19.80;99.90
11128;DHT22;5618;51.028;5.234;2022-09-01T01:32:37;19.90;99.90
11128;DHT22;5618;51.028;5.234;2022-09-01T01:35:04;19.90;99.90
11128;DHT22;5618;51.028;5.234;2022-09-01T01:37:33;19.70;99.90
11128;DHT22;5618;51.028;5.234;2022-09-01T01:40:00;19.60;99.90
11128;DHT22;5618;51.028;5.234;2022-09-01T01:42:26;19.30;99.90
11128;DHT22;5618;51.028;5.234;2022-09-01T01:44:53;19.30;99.90
11128;DHT22;5618;51.028;5.234;2022-09-01T01:47:20;19.30;99.90
11128;DHT22;5618;51.028;5.234;2022-09-01T01:49:46;19.20;99.90
11128;DHT22;5618;51.028;5.234;2022-09-01T01:52:13;19.20;99.90
11128;DHT22;5618;51.028;5.234;2022-09-01T01:54:42;19.30;99.90
11128;DHT22;5618;51.028;5.234;2022-09-01T01:57:11;19.30;99.90
11128;DHT22;5618;51.028;5.234;2022-09-01T01:59:40;19.30;99.90
11128;DHT22;5618;51.028;5.234;2022-09-01T02:02:06;19.30;99.90
11128;DHT22;5618;51.028;5.234;2022-09-01T02:04:32;19.30;99.90
11128;DHT22;5618;51.028;5.234;2022-09-01T02:06:59;19.10;99.90
11128;DHT22;5618;51.028;5.234;2022-09-01T02:09:24;19.10;99.90
11128;DHT22;5618;51.028;5.234;2022-09-01T02:11:50;19.10;99.90
11128;DHT22;5618;51.028;5.234;2022-09-01T02:14:19;19.20;99.90
11128;DHT22;5618;51.028;5.234;2022-09-01T02:16:46;19.20;99.90
11128;DHT22;5618;51.028;5.234;2022-09-01T02:19:12;19.20;99.90
11128;DHT22;5618;51.028;5.234;2022-09-01T02:21:38;19.30;99.90
11128;DHT22;5618;51.028;5.234;2022-09-01T02:24:09;19.30;99.90
11128;DHT22;5618;51.028;5.234;2022-09-01T02:26:39;19.40;99.90
11128;DHT22;5618;51.028;5.234;2022-09-01T02:29:08;19.50;99.90
11128;DHT22;5618;51.028;5.234;2022-09-01T02:31:42;19.50;99.90
11128;DHT22;5618;51.028;5.234;2022-09-01T02:34:09;19.50;99.90
11128;DHT22;5618;51.028;5.234;2022-09-01T02:36:44;19.40;99.90
11128;DHT22;5618;51.028;5.234;2022-09-01T02:39:17;19.40;99.90
11128;DHT22;5618;51.028;5.234;2022-09-01T02:41:43;19.40;99.90
11128;DHT22;5618;51.028;5.234;2022-09-01T02:44:09;19.40;99.90
11128;DHT22;5618;51.028;5.234;2022-09-01T02:46:41;19.40;99.90
11128;DHT22;5618;51.028;5.234;2022-09-01T02:49:12;19.40;99.90
11128;DHT22;5618;51.028;5.234;2022-09-01T02:51:47;19.30;99.90
11128;DHT22;5618;51.028;5.234;2022-09-01T02:54:13;19.00;99.90
11128;DHT22;5618;51.028;5.234;2022-09-01T02:56:42;18.80;99.90
11128;DHT22;5618;51.028;5.234;2022-09-01T02:59:10;18.80;99.90
11128;DHT22;5618;51.028;5.234;2022-09-01T03:01:38;18.90;99.90
11128;DHT22;5618;51.028;5.234;2022-09-01T03:04:05;19.00;99.90
11128;DHT22;5618;51.028;5.234;2022-09-01T03:06:32;19.10;99.90
11128;DHT22;5618;51.028;5.234;2022-09-01T03:08:59;19.10;99.90
11128;DHT22;5618;51.028;5.234;2022-09-01T03:11:27;19.10;99.90
11128;DHT22;5618;51.028;5.234;2022-09-01T03:13:54;19.10;99.90
11128;DHT22;5618;51.028;5.234;2022-09-01T03:16:20;19.10;99.90
11128;DHT22;5618;51.028;5.234;2022-09-01T03:18:47;19.10;99.90
11128;DHT22;5618;51.028;5.234;2022-09-01T03:21:13;19.10;99.90
11128;DHT22;5618;51.028;5.234;2022-09-01T03:23:42;19.10;99.90
11128;DHT22;5618;51.028;5.234;2022-09-01T03:26:08;19.10;99.90
11128;DHT22;5618;51.028;5.234;2022-09-01T03:28:34;19.00;99.90
11128;DHT22;5618;51.028;5.234;2022-09-01T03:31:03;18.90;99.90
11128;DHT22;5618;51.028;5.234;2022-09-01T03:33:29;18.70;99.90
11128;DHT22;5618;51.028;5.234;2022-09-01T03:35:55;18.50;99.90
11128;DHT22;5618;51.028;5.234;2022-09-01T03:38:22;18.30;99.90
11128;DHT22;5618;51.028;5.234;2022-09-01T03:40:51;18.40;99.90
11128;DHT22;5618;51.028;5.234;2022-09-01T03:43:18;18.40;99.90
11128;DHT22;5618;51.028;5.234;2022-09-01T03:45:48;18.50;99.90
11128;DHT22;5618;51.028;5.234;2022-09-01T03:48:13;18.30;99.90
11128;DHT22;5618;51.028;5.234;2022-09-01T03:50:43;18.30;99.90
11128;DHT22;5618;51.028;5.234;2022-09-01T03:53:14;18.30;99.90
11128;DHT22;5618;51.028;5.234;2022-09-01T03:55:43;18.40;99.90
11128;DHT22;5618;51.028;5.234;2022-09-01T03:58:10;18.50;99.90
11128;DHT22;5618;51.028;5.234;2022-09-01T04:00:42;18.50;99.90
11128;DHT22;5618;51.028;5.234;2022-09-01T04:03:10;18.50;99.90
11128;DHT22;5618;51.028;5.234;2022-09-01T04:05:38;18.60;99.90
11128;DHT22;5618;51.028;5.234;2022-09-01T04:08:07;18.60;99.90
11128;DHT22;5618;51.028;5.234;2022-09-01T04:10:41;18.60;99.90
11128;DHT22;5618;51.028;5.234;2022-09-01T04:13:09;18.60;99.90
11128;DHT22;5618;51.028;5.234;2022-09-01T04:15:36;18.70;99.90
11128;DHT22;5618;51.028;5.234;2022-09-01T04:18:03;18.50;99.90
11128;DHT22;5618;51.028;5.234;2022-09-01T04:20:39;18.50;99.90
11128;DHT22;5618;51.028;5.234;2022-09-01T04:23:17;18.50;99.90
11128;DHT22;5618;51.028;5.234;2022-09-01T04:25:48;18.30;99.90
11128;DHT22;5618;51.028;5.234;2022-09-01T04:28:18;18.30;99.90
11128;DHT22;5618;51.028;5.234;2022-09-01T04:30:57;18.40;99.90
11128;DHT22;5618;51.028;5.234;2022-09-01T04:33:25;18.40;99.90
11128;DHT22;5618;51.028;5.234;2022-09-01T04:35:52;18.30;99.90
11128;DHT22;5618;51.028;5.234;2022-09-01T04:38:23;18.40;99.90
11128;DHT22;5618;51.028;5.234;2022-09-01T04:40:49;18.30;99.90
11128;DHT22;5618;51.028;5.234;2022-09-01T04:43:15;18.40;99.90
11128;DHT22;5618;51.028;5.234;2022-09-01T04:45:41;18.40;99.90
11128;DHT22;5618;51.028;5.234;2022-09-01T04:48:07;18.30;99.90
11128;DHT22;5618;51.028;5.234;2022-09-01T04:50:33;18.20;99.90
11128;DHT22;5618;51.028;5.234;2022-09-01T04:53:03;18.20;99.90
11128;DHT22;5618;51.028;5.234;2022-09-01T04:55:31;18.10;99.90
11128;DHT22;5618;51.028;5.234;2022-09-01T04:57:59;18.20;99.90
11128;DHT22;5618;51.028;5.234;2022-09-01T05:00:26;18.10;99.90
11128;DHT22;5618;51.028;5.234;2022-09-01T05:03:01;18.20;99.90
11128;DHT22;5618;51.028;5.234;2022-09-01T05:05:35;18.10;99.90
11128;DHT22;5618;51.028;5.234;2022-09-01T05:08:05;18.20;99.90
11128;DHT22;5618;51.028;5.234;2022-09-01T05:10:30;18.20;99.90
11128;DHT22;5618;51.028;5.234;2022-09-01T05:12:57;18.10;99.90
11128;DHT22;5618;51.028;5.234;2022-09-01T05:15:23;18.20;99.90
11128;DHT22;5618;51.028;5.234;2022-09-01T05:17:49;18.20;99.90
11128;DHT22;5618;51.028;5.234;2022-09-01T05:20:16;18.20;99.90
11128;DHT22;5618;51.028;5.234;2022-09-01T05:22:41;18.20;99.90
11128;DHT22;5618;51.028;5.234;2022-09-01T05:25:08;18.20;99.90
11128;DHT22;5618;51.028;5.234;2022-09-01T05:27:39;18.30;99.90
11128;DHT22;5618;51.028;5.234;2022-09-01T05:30:06;18.50;99.90
11128;DHT22;5618;51.028;5.234;2022-09-01T05:32:35;18.60;99.90
11128;DHT22;5618;51.028;5.234;2022-09-01T05:35:03;18.80;99.90
11128;DHT22;5618;51.028;5.234;2022-09-01T05:37:36;18.90;99.90
11128;DHT22;5618;51.028;5.234;2022-09-01T05:40:04;19.00;99.90
11128;DHT22;5618;51.028;5.234;2022-09-01T05:42:30;19.20;99.90
11128;DHT22;5618;51.028;5.234;2022-09-01T05:44:56;19.30;99.90
11128;DHT22;5618;51.028;5.234;2022-09-01T05:47:23;19.40;99.90
11128;DHT22;5618;51.028;5.234;2022-09-01T05:49:49;19.60;99.90
11128;DHT22;5618;51.028;5.234;2022-09-01T05:52:14;19.80;99.90
11128;DHT22;5618;51.028;5.234;2022-09-01T05:54:40;20.00;99.90
11128;DHT22;5618;51.028;5.234;2022-09-01T05:57:06;20.10;99.90
11128;DHT22;5618;51.028;5.234;2022-09-01T05:59:32;20.20;99.90
11128;DHT22;5618;51.028;5.234;2022-09-01T06:01:58;20.30;99.90
11128;DHT22;5618;51.028;5.234;2022-09-01T06:04:25;20.40;99.90
11128;DHT22;5618;51.028;5.234;2022-09-01T06:06:52;20.50;99.90
11128;DHT22;5618;51.028;5.234;2022-09-01T06:09:20;20.60;99.90
11128;DHT22;5618;51.028;5.234;2022-09-01T06:11:48;20.70;99.90
11128;DHT22;5618;51.028;5.234;2022-09-01T06:14:15;20.80;99.90
11128;DHT22;5618;51.028;5.234;2022-09-01T06:16:41;21.20;99.90
11128;DHT22;5618;51.028;5.234;2022-09-01T06:19:08;21.40;99.90
11128;DHT22;5618;51.028;5.234;2022-09-01T06:21:35;21.10;99.90
11128;DHT22;5618;51.028;5.234;2022-09-01T06:24:01;20.70;99.90
11128;DHT22;5618;51.028;5.234;2022-09-01T06:26:30;20.70;99.90
11128;DHT22;5618;51.028;5.234;2022-09-01T06:28:59;20.40;99.90
11128;DHT22;5618;51.028;5.234;2022-09-01T06:31:28;20.20;99.90
11128;DHT22;5618;51.028;5.234;2022-09-01T06:33:59;20.20;99.90
11128;DHT22;5618;51.028;5.234;2022-09-01T06:36:26;20.30;99.90
11128;DHT22;5618;51.028;5.234;2022-09-01T06:38:53;20.10;99.90
11128;DHT22;5618;51.028;5.234;2022-09-01T06:41:21;20.00;99.90
11128;DHT22;5618;51.028;5.234;2022-09-01T06:43:50;20.10;99.90
11128;DHT22;5618;51.028;5.234;2022-09-01T06:46:19;20.00;99.90
11128;DHT22;5618;51.028;5.234;2022-09-01T06:48:46;20.10;99.90
11128;DHT22;5618;51.028;5.234;2022-09-01T06:51:20;20.20;99.90
11128;DHT22;5618;51.028;5.234;2022-09-01T06:53:48;20.30;99.90
11128;DHT22;5618;51.028;5.234;2022-09-01T06:56:18;20.10;99.90
11128;DHT22;5618;51.028;5.234;2022-09-01T06:58:44;20.20;99.90
11128;DHT22;5618;51.028;5.234;2022-09-01T07:01:15;20.20;99.90
11128;DHT22;5618;51.028;5.234;2022-09-01T07:03:46;20.40;99.90
11128;DHT22;5618;51.028;5.234;2022-09-01T07:06:13;20.50;99.90
11128;DHT22;5618;51.028;5.234;2022-09-01T07:08:40;20.70;99.90
11128;DHT22;5618;51.028;5.234;2022-09-01T07:11:17;21.00;99.90
11128;DHT22;5618;51.028;5.234;2022-09-01T07:13:48;21.20;99.90
11128;DHT22;5618;51.028;5.234;2022-09-01T07:16:17;21.20;99.90
11128;DHT22;5618;51.028;5.234;2022-09-01T07:18:53;21.50;99.90
11128;DHT22;5618;51.028;5.234;2022-09-01T07:21:21;21.40;99.90
11128;DHT22;5618;51.028;5.234;2022-09-01T07:23:47;21.80;99.90
11128;DHT22;5618;51.028;5.234;2022-09-01T07:26:13;21.70;99.90
11128;DHT22;5618;51.028;5.234;2022-09-01T07:28:46;21.40;99.90
11128;DHT22;5618;51.028;5.234;2022-09-01T07:31:19;21.50;99.90
11128;DHT22;5618;51.028;5.234;2022-09-01T07:33:47;21.80;99.90
11128;DHT22;5618;51.028;5.234;2022-09-01T07:36:14;22.20;99.90
11128;DHT22;5618;51.028;5.234;2022-09-01T07:38:40;22.20;99.90
11128;DHT22;5618;51.028;5.234;2022-09-01T07:41:08;22.30;99.90
11128;DHT22;5618;51.028;5.234;2022-09-01T07:43:35;22.40;99.90
11128;DHT22;5618;51.028;5.234;2022-09-01T07:46:03;22.60;99.90
11128;DHT22;5618;51.028;5.234;2022-09-01T07:48:29;22.40;99.90
11128;DHT22;5618;51.028;5.234;2022-09-01T07:50:55;22.40;99.90
11128;DHT22;5618;51.028;5.234;2022-09-01T07:53:26;22.30;99.90
11128;DHT22;5618;51.028;5.234;2022-09-01T07:55:54;22.50;99.90
11128;DHT22;5618;51.028;5.234;2022-09-01T07:58:23;22.70;99.90
11128;DHT22;5618;51.028;5.234;2022-09-01T08:00:49;22.50;99.90
11128;DHT22;5618;51.028;5.234;2022-09-01T08:03:20;22.60;99.90
11128;DHT22;5618;51.028;5.234;2022-09-01T08:05:47;22.90;99.90
11128;DHT22;5618;51.028;5.234;2022-09-01T08:08:15;23.20;99.90
11128;DHT22;5618;51.028;5.234;2022-09-01T08:10:42;23.40;99.90
11128;DHT22;5618;51.028;5.234;2022-09-01T08:13:10;23.60;99.90
11128;DHT22;5618;51.028;5.234;2022-09-01T08:15:38;23.80;99.90
11128;DHT22;5618;51.028;5.234;2022-09-01T08:18:04;24.30;99.90
11128;DHT22;5618;51.028;5.234;2022-09-01T08:20:30;24.40;99.90
11128;DHT22;5618;51.028;5.234;2022-09-01T08:22:59;24.40;99.90
11128;DHT22;5618;51.028;5.234;2022-09-01T08:25:25;24.30;99.90
11128;DHT22;5618;51.028;5.234;2022-09-01T08:27:51;24.60;99.90
11128;DHT22;5618;51.028;5.234;2022-09-01T08:30:17;24.50;99.90
11128;DHT22;5618;51.028;5.234;2022-09-01T08:32:43;24.70;99.90
11128;DHT22;5618;51.028;5.234;2022-09-01T08:35:10;24.90;99.90
11128;DHT22;5618;51.028;5.234;2022-09-01T08:37:37;24.90;99.90
11128;DHT22;5618;51.028;5.234;2022-09-01T08:40:05;25.20;99.90
11128;DHT22;5618;51.028;5.234;2022-09-01T08:42:56;25.50;99.90
11128;DHT22;5618;51.028;5.234;2022-09-01T08:45:36;25.50;99.90
11128;DHT22;5618;51.028;5.234;2022-09-01T08:48:33;25.30;99.90
11128;DHT22;5618;51.028;5.234;2022-09-01T08:51:13;25.50;99.90
11128;DHT22;5618;51.028;5.234;2022-09-01T08:53:48;25.90;99.90
11128;DHT22;5618;51.028;5.234;2022-09-01T08:56:18;25.80;99.90
11128;DHT22;5618;51.028;5.234;2022-09-01T08:58:44;25.70;99.90
11128;DHT22;5618;51.028;5.234;2022-09-01T09:01:17;25.50;99.90
11128;DHT22;5618;51.028;5.234;2022-09-01T09:04:18;25.60;99.90
11128;DHT22;5618;51.028;5.234;2022-09-01T09:06:59;25.70;99.90
11128;DHT22;5618;51.028;5.234;2022-09-01T09:09:36;26.20;99.90
11128;DHT22;5618;51.028;5.234;2022-09-01T09:12:38;26.30;99.90
11128;DHT22;5618;51.028;5.234;2022-09-01T09:15:31;26.50;99.90
11128;DHT22;5618;51.028;5.234;2022-09-01T09:18:19;26.50;99.90
11128;DHT22;5618;51.028;5.234;2022-09-01T09:20:50;26.00;99.90
11128;DHT22;5618;51.028;5.234;2022-09-01T09:23:26;25.80;99.90
11128;DHT22;5618;51.028;5.234;2022-09-01T09:25:53;26.10;99.90
11128;DHT22;5618;51.028;5.234;2022-09-01T09:28:19;26.40;99.90
11128;DHT22;5618;51.028;5.234;2022-09-01T09:30:45;26.70;99.80
11128;DHT22;5618;51.028;5.234;2022-09-01T09:33:32;26.80;99.30
11128;DHT22;5618;51.028;5.234;2022-09-01T09:36:19;26.50;99.30
11128;DHT22;5618;51.028;5.234;2022-09-01T09:38:46;26.10;99.90
11128;DHT22;5618;51.028;5.234;2022-09-01T09:48:46;25.80;99.90
11128;DHT22;5618;51.028;5.234;2022-09-01T09:51:18;25.70;99.90
11128;DHT22;5618;51.028;5.234;2022-09-01T09:53:45;25.80;99.90
11128;DHT22;5618;51.028;5.234;2022-09-01T09:56:20;26.20;99.80
11128;DHT22;5618;51.028;5.234;2022-09-01T09:58:49;26.50;99.90
11128;DHT22;5618;51.028;5.234;2022-09-01T10:03:55;26.90;99.30
11128;DHT22;5618;51.028;5.234;2022-09-01T10:06:41;27.40;98.60
11128;DHT22;5618;51.028;5.234;2022-09-01T10:11:56;27.10;98.50
11128;DHT22;5618;51.028;5.234;2022-09-01T10:14:29;27.20;98.60
11128;DHT22;5618;51.028;5.234;2022-09-01T10:17:10;27.20;97.70
11128;DHT22;5618;51.028;5.234;2022-09-01T10:19:37;27.30;97.50
11128;DHT22;5618;51.028;5.234;2022-09-01T10:22:07;27.10;98.00
11128;DHT22;5618;51.028;5.234;2022-09-01T10:24:36;27.40;97.40
11128;DHT22;5618;51.028;5.234;2022-09-01T10:27:07;27.50;96.80
11128;DHT22;5618;51.028;5.234;2022-09-01T10:29:58;27.80;97.00
11128;DHT22;5618;51.028;5.234;2022-09-01T10:32:37;27.80;96.50
11128;DHT22;5618;51.028;5.234;2022-09-01T10:35:06;28.00;96.00
11128;DHT22;5618;51.028;5.234;2022-09-01T10:37:33;28.00;96.00
11128;DHT22;5618;51.028;5.234;2022-09-01T10:42:55;27.70;96.20
11128;DHT22;5618;51.028;5.234;2022-09-01T10:45:38;28.00;95.80
11128;DHT22;5618;51.028;5.234;2022-09-01T10:50:53;28.10;95.40
11128;DHT22;5618;51.028;5.234;2022-09-01T10:59:08;28.50;93.30
11128;DHT22;5618;51.028;5.234;2022-09-01T11:04:07;27.70;92.60
11128;DHT22;5618;51.028;5.234;2022-09-01T11:09:36;27.60;92.80
11128;DHT22;5618;51.028;5.234;2022-09-01T11:12:25;28.10;93.30
11128;DHT22;5618;51.028;5.234;2022-09-01T11:15:05;28.40;91.90
11128;DHT22;5618;51.028;5.234;2022-09-01T11:17:38;28.50;91.30
11128;DHT22;5618;51.028;5.234;2022-09-01T11:20:27;28.20;90.80
11128;DHT22;5618;51.028;5.234;2022-09-01T11:36:15;27.80;92.00
11128;DHT22;5618;51.028;5.234;2022-09-01T11:44:13;27.40;89.20
11128;DHT22;5618;51.028;5.234;2022-09-01T11:46:39;27.40;88.90
11128;DHT22;5618;51.028;5.234;2022-09-01T11:49:30;27.40;89.20
11128;DHT22;5618;51.028;5.234;2022-09-01T11:51:58;27.40;89.00
11128;DHT22;5618;51.028;5.234;2022-09-01T11:54:26;27.10;87.80
11128;DHT22;5618;51.028;5.234;2022-09-01T11:56:52;26.90;86.70
11128;DHT22;5618;51.028;5.234;2022-09-01T11:59:36;26.80;88.00
11128;DHT22;5618;51.028;5.234;2022-09-01T12:02:03;26.50;87.60
11128;DHT22;5618;51.028;5.234;2022-09-01T12:04:32;26.40;88.60
11128;DHT22;5618;51.028;5.234;2022-09-01T12:07:08;26.40;88.00
11128;DHT22;5618;51.028;5.234;2022-09-01T12:09:40;26.30;87.90
11128;DHT22;5618;51.028;5.234;2022-09-01T12:12:28;26.20;86.90
11128;DHT22;5618;51.028;5.234;2022-09-01T12:15:25;26.20;86.80
11128;DHT22;5618;51.028;5.234;2022-09-01T12:17:49;26.50;86.80
11128;DHT22;5618;51.028;5.234;2022-09-01T12:20:23;26.50;86.80
11128;DHT22;5618;51.028;5.234;2022-09-01T12:22:50;26.60;87.10
11128;DHT22;5618;51.028;5.234;2022-09-01T12:25:27;26.40;86.60
11128;DHT22;5618;51.028;5.234;2022-09-01T12:27:53;26.30;87.50
11128;DHT22;5618;51.028;5.234;2022-09-01T12:30:21;26.40;86.00
11128;DHT22;5618;51.028;5.234;2022-09-01T12:32:47;26.10;86.50
11128;DHT22;5618;51.028;5.234;2022-09-01T12:35:16;26.20;86.70
11128;DHT22;5618;51.028;5.234;2022-09-01T12:37:44;26.10;86.70
11128;DHT22;5618;51.028;5.234;2022-09-01T12:40:31;26.10;86.00
11128;DHT22;5618;51.028;5.234;2022-09-01T12:42:57;26.30;84.60
11128;DHT22;5618;51.028;5.234;2022-09-01T12:45:37;26.30;84.80
11128;DHT22;5618;51.028;5.234;2022-09-01T12:48:03;26.20;84.10
11128;DHT22;5618;51.028;5.234;2022-09-01T12:52:59;26.30;85.90
11128;DHT22;5618;51.028;5.234;2022-09-01T12:55:30;26.30;85.30
11128;DHT22;5618;51.028;5.234;2022-09-01T12:57:58;26.30;85.10
11128;DHT22;5618;51.028;5.234;2022-09-01T13:03:06;26.20;81.90
11128;DHT22;5618;51.028;5.234;2022-09-01T13:08:03;26.40;83.50
11128;DHT22;5618;51.028;5.234;2022-09-01T13:10:35;26.10;83.50
11128;DHT22;5618;51.028;5.234;2022-09-01T13:13:04;25.90;84.10
11128;DHT22;5618;51.028;5.234;2022-09-01T13:15:30;26.00;85.40
11128;DHT22;5618;51.028;5.234;2022-09-01T13:17:57;25.90;83.70
11128;DHT22;5618;51.028;5.234;2022-09-01T13:20:22;25.80;84.20
11128;DHT22;5618;51.028;5.234;2022-09-01T13:22:48;25.90;85.30
11128;DHT22;5618;51.028;5.234;2022-09-01T13:25:17;26.30;85.00
11128;DHT22;5618;51.028;5.234;2022-09-01T13:27:44;26.20;85.00
11128;DHT22;5618;51.028;5.234;2022-09-01T13:30:13;26.10;85.80
11128;DHT22;5618;51.028;5.234;2022-09-01T13:32:44;26.40;84.90
11128;DHT22;5618;51.028;5.234;2022-09-01T13:35:12;26.30;83.60
11128;DHT22;5618;51.028;5.234;2022-09-01T13:37:38;25.80;84.00
11128;DHT22;5618;51.028;5.234;2022-09-01T13:40:04;26.00;84.00
11128;DHT22;5618;51.028;5.234;2022-09-01T13:42:32;25.90;85.40
11128;DHT22;5618;51.028;5.234;2022-09-01T13:44:58;26.30;84.80
11128;DHT22;5618;51.028;5.234;2022-09-01T13:47:24;26.40;84.80
11128;DHT22;5618;51.028;5.234;2022-09-01T13:49:50;25.90;84.80
11128;DHT22;5618;51.028;5.234;2022-09-01T13:52:16;26.20;85.30
11128;DHT22;5618;51.028;5.234;2022-09-01T13:54:41;26.40;84.60
11128;DHT22;5618;51.028;5.234;2022-09-01T13:57:11;26.40;85.80
11128;DHT22;5618;51.028;5.234;2022-09-01T13:59:37;25.90;85.10
11128;DHT22;5618;51.028;5.234;2022-09-01T14:02:04;26.10;85.30
11128;DHT22;5618;51.028;5.234;2022-09-01T14:04:30;26.40;85.30
11128;DHT22;5618;51.028;5.234;2022-09-01T14:06:56;26.50;84.30
11128;DHT22;5618;51.028;5.234;2022-09-01T14:09:24;26.30;84.50
11128;DHT22;5618;51.028;5.234;2022-09-01T14:11:52;25.90;84.60
11128;DHT22;5618;51.028;5.234;2022-09-01T14:14:18;25.90;84.70
11128;DHT22;5618;51.028;5.234;2022-09-01T14:16:44;25.70;84.60
11128;DHT22;5618;51.028;5.234;2022-09-01T14:19:11;25.80;84.20
11128;DHT22;5618;51.028;5.234;2022-09-01T14:21:37;26.20;84.50
11128;DHT22;5618;51.028;5.234;2022-09-01T14:24:04;26.60;84.10
11128;DHT22;5618;51.028;5.234;2022-09-01T14:26:29;26.40;81.20
11128;DHT22;5618;51.028;5.234;2022-09-01T14:28:55;26.20;81.00
11128;DHT22;5618;51.028;5.234;2022-09-01T14:31:21;26.00;82.60
11128;DHT22;5618;51.028;5.234;2022-09-01T14:33:47;26.10;81.70
11128;DHT22;5618;51.028;5.234;2022-09-01T14:36:24;25.90;82.20
11128;DHT22;5618;51.028;5.234;2022-09-01T14:38:51;26.00;82.70
11128;DHT22;5618;51.028;5.234;2022-09-01T14:41:17;26.00;80.50
11128;DHT22;5618;51.028;5.234;2022-09-01T14:43:53;25.60;81.50
11128;DHT22;5618;51.028;5.234;2022-09-01T14:46:19;25.50;81.90
11128;DHT22;5618;51.028;5.234;2022-09-01T14:48:46;25.60;82.00
11128;DHT22;5618;51.028;5.234;2022-09-01T14:51:27;25.60;82.60
11128;DHT22;5618;51.028;5.234;2022-09-01T14:53:54;26.00;82.30
11128;DHT22;5618;51.028;5.234;2022-09-01T14:56:20;26.20;82.80
11128;DHT22;5618;51.028;5.234;2022-09-01T14:58:47;26.50;81.20
11128;DHT22;5618;51.028;5.234;2022-09-01T15:01:15;26.70;81.40
11128;DHT22;5618;51.028;5.234;2022-09-01T15:03:42;26.70;80.80
11128;DHT22;5618;51.028;5.234;2022-09-01T15:06:11;26.50;80.30
11128;DHT22;5618;51.028;5.234;2022-09-01T15:08:38;26.50;81.30
11128;DHT22;5618;51.028;5.234;2022-09-01T15:11:11;26.60;79.50
11128;DHT22;5618;51.028;5.234;2022-09-01T15:13:38;26.70;80.40
11128;DHT22;5618;51.028;5.234;2022-09-01T15:16:04;26.50;79.80
11128;DHT22;5618;51.028;5.234;2022-09-01T15:18:30;26.30;80.00
11128;DHT22;5618;51.028;5.234;2022-09-01T15:20:57;26.30;79.60
11128;DHT22;5618;51.028;5.234;2022-09-01T15:23:24;26.30;79.80
11128;DHT22;5618;51.028;5.234;2022-09-01T15:25:52;26.30;80.00
11128;DHT22;5618;51.028;5.234;2022-09-01T15:28:18;26.40;80.10
11128;DHT22;5618;51.028;5.234;2022-09-01T15:30:45;26.30;80.00
11128;DHT22;5618;51.028;5.234;2022-09-01T15:33:12;26.30;81.10
11128;DHT22;5618;51.028;5.234;2022-09-01T15:35:38;26.40;79.80
11128;DHT22;5618;51.028;5.234;2022-09-01T15:38:04;26.20;79.40
11128;DHT22;5618;51.028;5.234;2022-09-01T15:40:32;26.30;80.20
11128;DHT22;5618;51.028;5.234;2022-09-01T15:42:57;26.30;80.00
11128;DHT22;5618;51.028;5.234;2022-09-01T15:45:26;26.30;79.70
11128;DHT22;5618;51.028;5.234;2022-09-01T15:47:52;26.60;80.30
11128;DHT22;5618;51.028;5.234;2022-09-01T15:50:23;26.30;79.70
11128;DHT22;5618;51.028;5.234;2022-09-01T15:52:55;26.40;79.60
11128;DHT22;5618;51.028;5.234;2022-09-01T15:55:25;26.40;80.30
11128;DHT22;5618;51.028;5.234;2022-09-01T15:57:52;26.50;81.10
11128;DHT22;5618;51.028;5.234;2022-09-01T16:00:20;26.50;79.50
11128;DHT22;5618;51.028;5.234;2022-09-01T16:02:46;26.80;80.10
11128;DHT22;5618;51.028;5.234;2022-09-01T16:05:12;27.20;79.10
11128;DHT22;5618;51.028;5.234;2022-09-01T16:07:38;27.20;79.10
11128;DHT22;5618;51.028;5.234;2022-09-01T16:10:05;27.30;79.00
11128;DHT22;5618;51.028;5.234;2022-09-01T16:12:36;27.10;78.10
11128;DHT22;5618;51.028;5.234;2022-09-01T16:15:02;27.00;79.50
11128;DHT22;5618;51.028;5.234;2022-09-01T16:18:02;26.90;79.20
11128;DHT22;5618;51.028;5.234;2022-09-01T16:23:26;27.10;78.90
11128;DHT22;5618;51.028;5.234;2022-09-01T16:25:57;27.10;78.50
11128;DHT22;5618;51.028;5.234;2022-09-01T16:28:27;26.80;79.10
11128;DHT22;5618;51.028;5.234;2022-09-01T16:31:19;27.00;79.90
11128;DHT22;5618;51.028;5.234;2022-09-01T16:33:48;27.40;80.90
11128;DHT22;5618;51.028;5.234;2022-09-01T16:43:05;27.40;78.50
11128;DHT22;5618;51.028;5.234;2022-09-01T16:56:08;26.70;78.70
11128;DHT22;5618;51.028;5.234;2022-09-01T16:58:49;26.50;79.80
11128;DHT22;5618;51.028;5.234;2022-09-01T17:04:31;26.10;80.70
11128;DHT22;5618;51.028;5.234;2022-09-01T17:08:07;26.30;81.60
11128;DHT22;5618;51.028;5.234;2022-09-01T17:12:48;26.80;80.10
11128;DHT22;5618;51.028;5.234;2022-09-01T17:15:38;26.70;79.80
11128;DHT22;5618;51.028;5.234;2022-09-01T17:20:35;26.30;81.00
11128;DHT22;5618;51.028;5.234;2022-09-01T17:23:06;26.10;82.30
11128;DHT22;5618;51.028;5.234;2022-09-01T17:28:17;26.20;81.80
11128;DHT22;5618;51.028;5.234;2022-09-01T17:30:56;26.30;82.20